sensor_id;sensor_type;location;lat;lon;timestamp;P1;durP1;ratioP1;P2;durP2;ratioP2
10114;SDS011;5097;43.260;27.812;2022-11-15T00:00:10;11.50;;;9.80;;
10114;SDS011;5097;43.260;27.812;2022-11-15T00:03:13;13.80;;;10.90;;
10114;SDS011;5097;43.260;27.812;2022-11-15T00:06:16;11.23;;;9.40;;
10114;SDS011;5097;43.260;27.812;2022-11-15T00:09:19;10.97;;;9.60;;
10114;SDS011;5097;43.260;27.812;2022-11-15T00:12:21;11.17;;;10.00;;
10114;SDS011;5097;43.260;27.812;2022-11-15T00:15:24;11.97;;;10.10;;
10114;SDS011;5097;43.260;27.812;2022-11-15T00:18:27;10.90;;;9.80;;
10114;SDS011;5097;43.260;27.812;2022-11-15T00:21:29;10.90;;;8.90;;
10114;SDS011;5097;43.260;27.812;2022-11-15T00:24:33;11.43;;;9.87;;
10114;SDS011;5097;43.260;27.812;2022-11-15T00:27:35;11.10;;;9.50;;
10114;SDS011;5097;43.260;27.812;2022-11-15T00:30:38;11.37;;;9.43;;
10114;SDS011;5097;43.260;27.812;2022-11-15T00:33:42;9.67;;;8.63;;
10114;SDS011;5097;43.260;27.812;2022-11-15T00:36:45;11.37;;;9.67;;
10114;SDS011;5097;43.260;27.812;2022-11-15T00:39:49;11.80;;;9.37;;
10114;SDS011;5097;43.260;27.812;2022-11-15T00:42:51;11.60;;;10.40;;
10114;SDS011;5097;43.260;27.812;2022-11-15T00:45:54;11.03;;;9.90;;
10114;SDS011;5097;43.260;27.812;2022-11-15T00:48:56;11.53;;;10.33;;
10114;SDS011;5097;43.260;27.812;2022-11-15T00:51:59;10.60;;;9.50;;
10114;SDS011;5097;43.260;27.812;2022-11-15T00:55:04;10.40;;;9.13;;
10114;SDS011;5097;43.260;27.812;2022-11-15T00:58:07;11.17;;;10.07;;
10114;SDS011;5097;43.260;27.812;2022-11-15T01:01:11;10.57;;;9.53;;
10114;SDS011;5097;43.260;27.812;2022-11-15T01:04:15;10.90;;;9.80;;
10114;SDS011;5097;43.260;27.812;2022-11-15T01:07:18;10.03;;;9.03;;
10114;SDS011;5097;43.260;27.812;2022-11-15T01:10:22;10.50;;;9.37;;
10114;SDS011;5097;43.260;27.812;2022-11-15T01:13:26;10.87;;;9.77;;
10114;SDS011;5097;43.260;27.812;2022-11-15T01:16:32;9.90;;;8.90;;
10114;SDS011;5097;43.260;27.812;2022-11-15T01:19:34;10.13;;;9.10;;
10114;SDS011;5097;43.260;27.812;2022-11-15T01:22:37;10.67;;;9.57;;
10114;SDS011;5097;43.260;27.812;2022-11-15T01:25:40;10.67;;;9.67;;
10114;SDS011;5097;43.260;27.812;2022-11-15T01:28:43;10.77;;;9.67;;
10114;SDS011;5097;43.260;27.812;2022-11-15T01:31:45;10.90;;;9.73;;
10114;SDS011;5097;43.260;27.812;2022-11-15T01:34:48;11.77;;;10.53;;
10114;SDS011;5097;43.260;27.812;2022-11-15T01:37:50;11.93;;;10.53;;
10114;SDS011;5097;43.260;27.812;2022-11-15T01:40:54;11.40;;;10.20;;
10114;SDS011;5097;43.260;27.812;2022-11-15T01:43:57;11.87;;;10.57;;
10114;SDS011;5097;43.260;27.812;2022-11-15T01:47:21;10.73;;;9.63;;
10114;SDS011;5097;43.260;27.812;2022-11-15T01:50:29;12.07;;;10.87;;
10114;SDS011;5097;43.260;27.812;2022-11-15T01:53:34;12.87;;;11.43;;
10114;SDS011;5097;43.260;27.812;2022-11-15T01:56:42;11.50;;;10.27;;
10114;SDS011;5097;43.260;27.812;2022-11-15T01:59:48;12.47;;;11.17;;
10114;SDS011;5097;43.260;27.812;2022-11-15T02:02:51;10.97;;;9.87;;
10114;SDS011;5097;43.260;27.812;2022-11-15T02:05:53;12.07;;;10.83;;
10114;SDS011;5097;43.260;27.812;2022-11-15T02:08:55;10.47;;;9.47;;
10114;SDS011;5097;43.260;27.812;2022-11-15T02:12:00;11.90;;;10.70;;
10114;SDS011;5097;43.260;27.812;2022-11-15T02:15:03;11.23;;;10.03;;
10114;SDS011;5097;43.260;27.812;2022-11-15T02:18:10;11.43;;;10.33;;
10114;SDS011;5097;43.260;27.812;2022-11-15T02:21:21;11.43;;;10.23;;
10114;SDS011;5097;43.260;27.812;2022-11-15T02:31:38;10.23;;;9.03;;
10114;SDS011;5097;43.260;27.812;2022-11-15T02:34:50;11.57;;;9.80;;
10114;SDS011;5097;43.260;27.812;2022-11-15T02:37:58;11.97;;;9.80;;
10114;SDS011;5097;43.260;27.812;2022-11-15T02:41:07;11.13;;;9.57;;
10114;SDS011;5097;43.260;27.812;2022-11-15T02:44:14;9.77;;;8.77;;
10114;SDS011;5097;43.260;27.812;2022-11-15T02:47:21;11.30;;;9.27;;
10114;SDS011;5097;43.260;27.812;2022-11-15T02:50:27;10.93;;;9.77;;
10114;SDS011;5097;43.260;27.812;2022-11-15T02:53:31;10.87;;;9.10;;
10114;SDS011;5097;43.260;27.812;2022-11-15T02:56:34;11.30;;;9.53;;
10114;SDS011;5097;43.260;27.812;2022-11-15T02:59:41;10.93;;;9.73;;
10114;SDS011;5097;43.260;27.812;2022-11-15T03:03:12;12.57;;;9.73;;
10114;SDS011;5097;43.260;27.812;2022-11-15T03:06:28;12.67;;;10.17;;
10114;SDS011;5097;43.260;27.812;2022-11-15T03:09:39;11.33;;;10.10;;
10114;SDS011;5097;43.260;27.812;2022-11-15T03:12:48;12.13;;;9.37;;
10114;SDS011;5097;43.260;27.812;2022-11-15T03:16:01;12.07;;;9.93;;
10114;SDS011;5097;43.260;27.812;2022-11-15T03:19:09;11.80;;;9.30;;
10114;SDS011;5097;43.260;27.812;2022-11-15T03:22:16;9.57;;;8.57;;
10114;SDS011;5097;43.260;27.812;2022-11-15T03:25:22;11.33;;;9.40;;
10114;SDS011;5097;43.260;27.812;2022-11-15T03:28:28;11.50;;;9.73;;
10114;SDS011;5097;43.260;27.812;2022-11-15T03:31:36;12.30;;;9.90;;
10114;SDS011;5097;43.260;27.812;2022-11-15T03:34:53;11.23;;;9.50;;
10114;SDS011;5097;43.260;27.812;2022-11-15T03:38:00;13.00;;;10.37;;
10114;SDS011;5097;43.260;27.812;2022-11-15T03:41:12;12.63;;;11.17;;
10114;SDS011;5097;43.260;27.812;2022-11-15T03:44:26;13.27;;;10.90;;
10114;SDS011;5097;43.260;27.812;2022-11-15T03:47:38;13.03;;;11.07;;
10114;SDS011;5097;43.260;27.812;2022-11-15T03:50:45;12.20;;;9.97;;
10114;SDS011;5097;43.260;27.812;2022-11-15T03:53:49;12.77;;;9.73;;
10114;SDS011;5097;43.260;27.812;2022-11-15T03:56:52;12.03;;;9.60;;
10114;SDS011;5097;43.260;27.812;2022-11-15T03:59:54;11.60;;;9.90;;
10114;SDS011;5097;43.260;27.812;2022-11-15T04:02:57;11.47;;;9.53;;
10114;SDS011;5097;43.260;27.812;2022-11-15T04:06:01;11.50;;;9.87;;
10114;SDS011;5097;43.260;27.812;2022-11-15T04:09:04;12.67;;;9.83;;
10114;SDS011;5097;43.260;27.812;2022-11-15T04:12:06;11.50;;;9.97;;
10114;SDS011;5097;43.260;27.812;2022-11-15T04:15:09;12.03;;;10.57;;
10114;SDS011;5097;43.260;27.812;2022-11-15T04:18:14;10.50;;;9.40;;
10114;SDS011;5097;43.260;27.812;2022-11-15T04:21:18;11.87;;;10.47;;
10114;SDS011;5097;43.260;27.812;2022-11-15T04:24:38;12.90;;;10.03;;
10114;SDS011;5097;43.260;27.812;2022-11-15T04:27:40;13.10;;;10.70;;
10114;SDS011;5097;43.260;27.812;2022-11-15T04:30:43;12.63;;;10.13;;
10114;SDS011;5097;43.260;27.812;2022-11-15T04:33:45;11.97;;;10.73;;
10114;SDS011;5097;43.260;27.812;2022-11-15T04:36:49;14.37;;;10.27;;
10114;SDS011;5097;43.260;27.812;2022-11-15T04:40:09;16.17;;;11.33;;
10114;SDS011;5097;43.260;27.812;2022-11-15T04:43:12;15.63;;;11.67;;
10114;SDS011;5097;43.260;27.812;2022-11-15T04:46:14;17.23;;;12.60;;
10114;SDS011;5097;43.260;27.812;2022-11-15T04:49:16;14.50;;;11.07;;
10114;SDS011;5097;43.260;27.812;2022-11-15T04:52:20;16.03;;;11.53;;
10114;SDS011;5097;43.260;27.812;2022-11-15T04:55:22;13.57;;;10.83;;
10114;SDS011;5097;43.260;27.812;2022-11-15T04:58:25;13.87;;;11.77;;
10114;SDS011;5097;43.260;27.812;2022-11-15T05:01:28;12.53;;;11.20;;
10114;SDS011;5097;43.260;27.812;2022-11-15T05:04:30;15.60;;;11.30;;
10114;SDS011;5097;43.260;27.812;2022-11-15T05:07:33;14.70;;;10.60;;
10114;SDS011;5097;43.260;27.812;2022-11-15T05:10:36;19.17;;;15.77;;
10114;SDS011;5097;43.260;27.812;2022-11-15T05:13:38;13.07;;;10.90;;
10114;SDS011;5097;43.260;27.812;2022-11-15T05:16:40;18.83;;;14.03;;
10114;SDS011;5097;43.260;27.812;2022-11-15T05:19:42;13.83;;;11.97;;
10114;SDS011;5097;43.260;27.812;2022-11-15T05:22:47;13.17;;;10.47;;
10114;SDS011;5097;43.260;27.812;2022-11-15T05:25:49;13.27;;;11.50;;
10114;SDS011;5097;43.260;27.812;2022-11-15T05:28:52;12.57;;;10.57;;
10114;SDS011;5097;43.260;27.812;2022-11-15T05:31:54;11.20;;;9.57;;
10114;SDS011;5097;43.260;27.812;2022-11-15T05:34:57;14.00;;;10.77;;
10114;SDS011;5097;43.260;27.812;2022-11-15T05:38:01;11.93;;;10.43;;
10114;SDS011;5097;43.260;27.812;2022-11-15T05:41:04;13.23;;;9.63;;
10114;SDS011;5097;43.260;27.812;2022-11-15T05:44:09;8.93;;;8.03;;
10114;SDS011;5097;43.260;27.812;2022-11-15T05:47:13;11.93;;;10.20;;
10114;SDS011;5097;43.260;27.812;2022-11-15T05:50:19;12.70;;;9.17;;
10114;SDS011;5097;43.260;27.812;2022-11-15T05:53:23;12.73;;;10.13;;
10114;SDS011;5097;43.260;27.812;2022-11-15T05:56:28;10.50;;;9.40;;
10114;SDS011;5097;43.260;27.812;2022-11-15T05:59:31;15.17;;;9.40;;
10114;SDS011;5097;43.260;27.812;2022-11-15T06:02:35;10.90;;;9.23;;
10114;SDS011;5097;43.260;27.812;2022-11-15T06:05:37;11.53;;;9.87;;
10114;SDS011;5097;43.260;27.812;2022-11-15T06:08:41;12.33;;;8.90;;
10114;SDS011;5097;43.260;27.812;2022-11-15T06:11:43;11.53;;;8.90;;
10114;SDS011;5097;43.260;27.812;2022-11-15T06:14:46;10.33;;;9.33;;
10114;SDS011;5097;43.260;27.812;2022-11-15T06:17:48;11.43;;;9.20;;
10114;SDS011;5097;43.260;27.812;2022-11-15T06:20:50;11.90;;;9.57;;
10114;SDS011;5097;43.260;27.812;2022-11-15T06:23:54;11.20;;;9.40;;
10114;SDS011;5097;43.260;27.812;2022-11-15T06:26:56;12.07;;;9.57;;
10114;SDS011;5097;43.260;27.812;2022-11-15T06:29:59;11.53;;;8.77;;
10114;SDS011;5097;43.260;27.812;2022-11-15T06:33:02;11.03;;;9.77;;
10114;SDS011;5097;43.260;27.812;2022-11-15T06:36:07;16.10;;;12.40;;
10114;SDS011;5097;43.260;27.812;2022-11-15T06:39:18;11.93;;;10.17;;
10114;SDS011;5097;43.260;27.812;2022-11-15T06:42:21;11.07;;;9.97;;
10114;SDS011;5097;43.260;27.812;2022-11-15T06:45:23;11.17;;;9.27;;
10114;SDS011;5097;43.260;27.812;2022-11-15T06:48:25;10.67;;;9.00;;
10114;SDS011;5097;43.260;27.812;2022-11-15T06:51:28;9.10;;;8.20;;
10114;SDS011;5097;43.260;27.812;2022-11-15T06:54:32;9.33;;;7.67;;
10114;SDS011;5097;43.260;27.812;2022-11-15T06:57:35;10.27;;;8.77;;
10114;SDS011;5097;43.260;27.812;2022-11-15T07:00:37;11.43;;;8.73;;
10114;SDS011;5097;43.260;27.812;2022-11-15T07:03:40;11.67;;;9.30;;
10114;SDS011;5097;43.260;27.812;2022-11-15T07:06:45;10.03;;;8.93;;
10114;SDS011;5097;43.260;27.812;2022-11-15T07:09:49;14.60;;;11.07;;
10114;SDS011;5097;43.260;27.812;2022-11-15T07:12:51;9.73;;;8.73;;
10114;SDS011;5097;43.260;27.812;2022-11-15T07:15:54;9.53;;;8.03;;
10114;SDS011;5097;43.260;27.812;2022-11-15T07:18:56;10.33;;;8.80;;
10114;SDS011;5097;43.260;27.812;2022-11-15T07:21:59;8.27;;;7.33;;
10114;SDS011;5097;43.260;27.812;2022-11-15T07:25:03;7.87;;;7.07;;
10114;SDS011;5097;43.260;27.812;2022-11-15T07:28:06;8.87;;;7.53;;
10114;SDS011;5097;43.260;27.812;2022-11-15T07:31:08;9.67;;;7.97;;
10114;SDS011;5097;43.260;27.812;2022-11-15T07:34:11;8.50;;;7.60;;
10114;SDS011;5097;43.260;27.812;2022-11-15T07:37:13;11.67;;;7.43;;
10114;SDS011;5097;43.260;27.812;2022-11-15T07:40:18;8.73;;;7.47;;
10114;SDS011;5097;43.260;27.812;2022-11-15T07:43:20;7.60;;;6.83;;
10114;SDS011;5097;43.260;27.812;2022-11-15T07:46:23;7.63;;;6.83;;
10114;SDS011;5097;43.260;27.812;2022-11-15T07:49:25;7.30;;;6.60;;
10114;SDS011;5097;43.260;27.812;2022-11-15T07:52:27;9.37;;;7.33;;
10114;SDS011;5097;43.260;27.812;2022-11-15T07:55:31;8.00;;;6.83;;
10114;SDS011;5097;43.260;27.812;2022-11-15T07:58:33;7.10;;;6.40;;
10114;SDS011;5097;43.260;27.812;2022-11-15T08:01:36;9.00;;;7.17;;
10114;SDS011;5097;43.260;27.812;2022-11-15T08:04:39;9.73;;;7.13;;
10114;SDS011;5097;43.260;27.812;2022-11-15T08:07:40;7.50;;;6.50;;
10114;SDS011;5097;43.260;27.812;2022-11-15T08:10:44;6.87;;;6.23;;
10114;SDS011;5097;43.260;27.812;2022-11-15T08:13:46;7.23;;;6.20;;
10114;SDS011;5097;43.260;27.812;2022-11-15T08:16:48;6.57;;;5.97;;
10114;SDS011;5097;43.260;27.812;2022-11-15T08:19:50;6.20;;;5.50;;
10114;SDS011;5097;43.260;27.812;2022-11-15T08:22:52;7.77;;;6.00;;
10114;SDS011;5097;43.260;27.812;2022-11-15T08:26:00;5.63;;;5.13;;
10114;SDS011;5097;43.260;27.812;2022-11-15T08:29:03;8.40;;;5.97;;
10114;SDS011;5097;43.260;27.812;2022-11-15T08:32:05;7.30;;;6.10;;
10114;SDS011;5097;43.260;27.812;2022-11-15T08:35:08;6.47;;;5.80;;
10114;SDS011;5097;43.260;27.812;2022-11-15T08:38:11;6.73;;;4.97;;
10114;SDS011;5097;43.260;27.812;2022-11-15T08:41:16;5.63;;;5.13;;
10114;SDS011;5097;43.260;27.812;2022-11-15T08:44:25;5.77;;;5.00;;
10114;SDS011;5097;43.260;27.812;2022-11-15T08:47:28;6.67;;;5.33;;
10114;SDS011;5097;43.260;27.812;2022-11-15T08:50:30;5.67;;;5.07;;
10114;SDS011;5097;43.260;27.812;2022-11-15T08:53:33;5.40;;;4.90;;
10114;SDS011;5097;43.260;27.812;2022-11-15T08:56:37;7.40;;;5.80;;
10114;SDS011;5097;43.260;27.812;2022-11-15T08:59:40;6.77;;;6.07;;
10114;SDS011;5097;43.260;27.812;2022-11-15T09:02:44;5.83;;;5.33;;
10114;SDS011;5097;43.260;27.812;2022-11-15T09:05:47;5.37;;;4.87;;
10114;SDS011;5097;43.260;27.812;2022-11-15T09:08:50;5.43;;;4.93;;
10114;SDS011;5097;43.260;27.812;2022-11-15T09:11:54;6.03;;;5.17;;
10114;SDS011;5097;43.260;27.812;2022-11-15T09:15:02;5.83;;;5.23;;
10114;SDS011;5097;43.260;27.812;2022-11-15T09:18:05;5.87;;;5.30;;
10114;SDS011;5097;43.260;27.812;2022-11-15T09:21:08;7.20;;;5.53;;
10114;SDS011;5097;43.260;27.812;2022-11-15T09:24:11;6.83;;;6.07;;
10114;SDS011;5097;43.260;27.812;2022-11-15T09:27:14;6.80;;;5.83;;
10114;SDS011;5097;43.260;27.812;2022-11-15T09:30:17;6.33;;;5.13;;
10114;SDS011;5097;43.260;27.812;2022-11-15T09:33:20;7.17;;;6.43;;
10114;SDS011;5097;43.260;27.812;2022-11-15T09:36:22;7.33;;;6.63;;
10114;SDS011;5097;43.260;27.812;2022-11-15T09:39:24;6.60;;;6.00;;
10114;SDS011;5097;43.260;27.812;2022-11-15T09:42:33;7.87;;;6.83;;
10114;SDS011;5097;43.260;27.812;2022-11-15T09:45:47;12.77;;;9.40;;
10114;SDS011;5097;43.260;27.812;2022-11-15T09:48:58;7.80;;;6.73;;
10114;SDS011;5097;43.260;27.812;2022-11-15T09:51:47;6.50;;;5.63;;
10114;SDS011;5097;43.260;27.812;2022-11-15T09:54:34;5.37;;;4.87;;
10114;SDS011;5097;43.260;27.812;2022-11-15T09:57:38;5.07;;;4.50;;
10114;SDS011;5097;43.260;27.812;2022-11-15T10:00:29;5.50;;;4.93;;
10114;SDS011;5097;43.260;27.812;2022-11-15T10:03:33;4.60;;;4.20;;
10114;SDS011;5097;43.260;27.812;2022-11-15T10:06:22;4.70;;;4.23;;
10114;SDS011;5097;43.260;27.812;2022-11-15T10:09:11;4.83;;;4.40;;
10114;SDS011;5097;43.260;27.812;2022-11-15T10:12:06;4.40;;;4.03;;
10114;SDS011;5097;43.260;27.812;2022-11-15T10:14:55;4.87;;;4.47;;
10114;SDS011;5097;43.260;27.812;2022-11-15T10:17:57;3.37;;;3.07;;
10114;SDS011;5097;43.260;27.812;2022-11-15T10:20:49;4.47;;;4.00;;
10114;SDS011;5097;43.260;27.812;2022-11-15T10:23:37;3.77;;;3.30;;
10114;SDS011;5097;43.260;27.812;2022-11-15T10:26:21;4.30;;;3.93;;
10114;SDS011;5097;43.260;27.812;2022-11-15T10:29:06;3.57;;;3.27;;
10114;SDS011;5097;43.260;27.812;2022-11-15T10:31:52;4.00;;;3.60;;
10114;SDS011;5097;43.260;27.812;2022-11-15T10:34:35;4.00;;;3.60;;
10114;SDS011;5097;43.260;27.812;2022-11-15T10:37:26;3.93;;;3.63;;
10114;SDS011;5097;43.260;27.812;2022-11-15T10:40:15;4.30;;;3.90;;
10114;SDS011;5097;43.260;27.812;2022-11-15T10:43:18;4.57;;;3.70;;
10114;SDS011;5097;43.260;27.812;2022-11-15T10:46:09;4.43;;;4.03;;
10114;SDS011;5097;43.260;27.812;2022-11-15T10:49:24;5.30;;;4.47;;
10114;SDS011;5097;43.260;27.812;2022-11-15T10:52:12;4.50;;;4.10;;
10114;SDS011;5097;43.260;27.812;2022-11-15T10:55:03;5.00;;;4.30;;
10114;SDS011;5097;43.260;27.812;2022-11-15T10:58:04;5.20;;;4.80;;
10114;SDS011;5097;43.260;27.812;2022-11-15T11:00:51;9.77;;;5.63;;
10114;SDS011;5097;43.260;27.812;2022-11-15T11:03:37;4.20;;;3.80;;
10114;SDS011;5097;43.260;27.812;2022-11-15T11:06:24;4.67;;;4.17;;
10114;SDS011;5097;43.260;27.812;2022-11-15T11:09:10;4.37;;;3.97;;
10114;SDS011;5097;43.260;27.812;2022-11-15T11:12:09;4.00;;;3.63;;
10114;SDS011;5097;43.260;27.812;2022-11-15T11:14:54;4.67;;;4.10;;
10114;SDS011;5097;43.260;27.812;2022-11-15T11:17:43;5.27;;;3.97;;
10114;SDS011;5097;43.260;27.812;2022-11-15T11:20:36;4.50;;;4.10;;
10114;SDS011;5097;43.260;27.812;2022-11-15T11:23:33;5.63;;;4.27;;
10114;SDS011;5097;43.260;27.812;2022-11-15T11:26:37;3.50;;;3.20;;
10114;SDS011;5097;43.260;27.812;2022-11-15T11:29:29;3.83;;;3.37;;
10114;SDS011;5097;43.260;27.812;2022-11-15T11:32:27;4.50;;;3.93;;
10114;SDS011;5097;43.260;27.812;2022-11-15T11:35:24;5.80;;;5.17;;
10114;SDS011;5097;43.260;27.812;2022-11-15T11:38:24;8.27;;;7.57;;
10114;SDS011;5097;43.260;27.812;2022-11-15T11:41:34;5.50;;;4.17;;
10114;SDS011;5097;43.260;27.812;2022-11-15T11:44:30;3.90;;;3.60;;
10114;SDS011;5097;43.260;27.812;2022-11-15T11:47:19;6.53;;;5.93;;
10114;SDS011;5097;43.260;27.812;2022-11-15T11:50:10;4.87;;;4.40;;
10114;SDS011;5097;43.260;27.812;2022-11-15T11:52:57;5.50;;;5.00;;
10114;SDS011;5097;43.260;27.812;2022-11-15T11:55:47;6.63;;;4.60;;
10114;SDS011;5097;43.260;27.812;2022-11-15T11:58:35;5.87;;;4.43;;
10114;SDS011;5097;43.260;27.812;2022-11-15T12:01:23;4.00;;;3.60;;
10114;SDS011;5097;43.260;27.812;2022-11-15T12:04:09;8.03;;;5.20;;
10114;SDS011;5097;43.260;27.812;2022-11-15T12:06:58;6.83;;;4.70;;
10114;SDS011;5097;43.260;27.812;2022-11-15T12:09:48;4.27;;;3.87;;
10114;SDS011;5097;43.260;27.812;2022-11-15T12:12:41;5.10;;;3.90;;
10114;SDS011;5097;43.260;27.812;2022-11-15T12:15:31;4.60;;;3.80;;
10114;SDS011;5097;43.260;27.812;2022-11-15T12:18:18;13.33;;;11.93;;
10114;SDS011;5097;43.260;27.812;2022-11-15T12:21:03;5.37;;;4.87;;
10114;SDS011;5097;43.260;27.812;2022-11-15T12:23:52;6.50;;;4.33;;
10114;SDS011;5097;43.260;27.812;2022-11-15T12:26:41;4.87;;;4.47;;
10114;SDS011;5097;43.260;27.812;2022-11-15T12:29:33;5.20;;;4.33;;
10114;SDS011;5097;43.260;27.812;2022-11-15T12:32:24;6.50;;;5.93;;
10114;SDS011;5097;43.260;27.812;2022-11-15T12:35:20;5.20;;;4.70;;
10114;SDS011;5097;43.260;27.812;2022-11-15T12:38:08;8.77;;;4.60;;
10114;SDS011;5097;43.260;27.812;2022-11-15T12:43:56;7.33;;;4.83;;
10114;SDS011;5097;43.260;27.812;2022-11-15T12:47:03;5.20;;;4.50;;
10114;SDS011;5097;43.260;27.812;2022-11-15T12:50:10;5.27;;;4.40;;
10114;SDS011;5097;43.260;27.812;2022-11-15T12:56:23;8.33;;;5.83;;
10114;SDS011;5097;43.260;27.812;2022-11-15T12:59:07;6.03;;;5.43;;
10114;SDS011;5097;43.260;27.812;2022-11-15T13:01:59;5.47;;;4.40;;
10114;SDS011;5097;43.260;27.812;2022-11-15T13:04:45;4.57;;;4.17;;
10114;SDS011;5097;43.260;27.812;2022-11-15T13:10:41;4.97;;;4.47;;
10114;SDS011;5097;43.260;27.812;2022-11-15T13:16:27;10.50;;;8.93;;
10114;SDS011;5097;43.260;27.812;2022-11-15T13:19:13;9.90;;;8.93;;
10114;SDS011;5097;43.260;27.812;2022-11-15T13:21:59;11.07;;;8.27;;
10114;SDS011;5097;43.260;27.812;2022-11-15T13:25:00;8.53;;;7.70;;
10114;SDS011;5097;43.260;27.812;2022-11-15T13:27:45;9.20;;;6.10;;
10114;SDS011;5097;43.260;27.812;2022-11-15T13:30:30;8.80;;;6.60;;
10114;SDS011;5097;43.260;27.812;2022-11-15T13:33:15;6.87;;;6.17;;
10114;SDS011;5097;43.260;27.812;2022-11-15T13:36:05;8.00;;;6.30;;
10114;SDS011;5097;43.260;27.812;2022-11-15T13:38:56;18.07;;;14.23;;
10114;SDS011;5097;43.260;27.812;2022-11-15T13:41:45;162.60;;;80.10;;
10114;SDS011;5097;43.260;27.812;2022-11-15T13:44:32;172.10;;;82.43;;
10114;SDS011;5097;43.260;27.812;2022-11-15T13:47:19;38.97;;;24.80;;
10114;SDS011;5097;43.260;27.812;2022-11-15T13:50:03;15.60;;;12.80;;
10114;SDS011;5097;43.260;27.812;2022-11-15T13:52:56;21.10;;;18.90;;
10114;SDS011;5097;43.260;27.812;2022-11-15T13:55:42;15.60;;;12.53;;
10114;SDS011;5097;43.260;27.812;2022-11-15T13:58:25;57.77;;;42.53;;
10114;SDS011;5097;43.260;27.812;2022-11-15T14:01:13;22.50;;;14.60;;
10114;SDS011;5097;43.260;27.812;2022-11-15T14:04:01;19.17;;;13.83;;
10114;SDS011;5097;43.260;27.812;2022-11-15T14:06:47;12.30;;;9.87;;
10114;SDS011;5097;43.260;27.812;2022-11-15T14:09:37;13.77;;;11.97;;
10114;SDS011;5097;43.260;27.812;2022-11-15T14:12:23;9.57;;;8.60;;
10114;SDS011;5097;43.260;27.812;2022-11-15T14:15:18;11.03;;;9.20;;
10114;SDS011;5097;43.260;27.812;2022-11-15T14:18:42;9.90;;;8.80;;
10114;SDS011;5097;43.260;27.812;2022-11-15T14:21:24;14.97;;;11.93;;
10114;SDS011;5097;43.260;27.812;2022-11-15T14:24:14;18.90;;;12.97;;
10114;SDS011;5097;43.260;27.812;2022-11-15T14:30:07;16.43;;;12.07;;
10114;SDS011;5097;43.260;27.812;2022-11-15T14:32:56;18.77;;;14.43;;
10114;SDS011;5097;43.260;27.812;2022-11-15T14:35:40;14.47;;;12.97;;
10114;SDS011;5097;43.260;27.812;2022-11-15T14:38:24;16.43;;;14.73;;
10114;SDS011;5097;43.260;27.812;2022-11-15T14:41:10;15.67;;;13.97;;
10114;SDS011;5097;43.260;27.812;2022-11-15T14:44:04;15.80;;;12.63;;
10114;SDS011;5097;43.260;27.812;2022-11-15T14:46:49;14.33;;;12.83;;
10114;SDS011;5097;43.260;27.812;2022-11-15T14:49:33;18.93;;;13.70;;
10114;SDS011;5097;43.260;27.812;2022-11-15T14:52:22;15.00;;;12.10;;
10114;SDS011;5097;43.260;27.812;2022-11-15T14:55:16;20.90;;;17.17;;
10114;SDS011;5097;43.260;27.812;2022-11-15T14:58:02;25.33;;;22.63;;
10114;SDS011;5097;43.260;27.812;2022-11-15T15:00:48;17.10;;;15.30;;
10114;SDS011;5097;43.260;27.812;2022-11-15T15:03:32;17.73;;;15.93;;
10114;SDS011;5097;43.260;27.812;2022-11-15T15:06:15;16.73;;;14.20;;
10114;SDS011;5097;43.260;27.812;2022-11-15T15:08:59;18.70;;;14.67;;
10114;SDS011;5097;43.260;27.812;2022-11-15T15:11:43;18.90;;;15.50;;
10114;SDS011;5097;43.260;27.812;2022-11-15T15:14:27;22.77;;;17.53;;
10114;SDS011;5097;43.260;27.812;2022-11-15T15:17:13;21.73;;;18.03;;
10114;SDS011;5097;43.260;27.812;2022-11-15T15:19:57;23.73;;;17.73;;
10114;SDS011;5097;43.260;27.812;2022-11-15T15:22:41;26.07;;;18.40;;
10114;SDS011;5097;43.260;27.812;2022-11-15T15:25:26;27.63;;;18.73;;
10114;SDS011;5097;43.260;27.812;2022-11-15T15:28:12;23.77;;;19.67;;
10114;SDS011;5097;43.260;27.812;2022-11-15T15:30:56;22.37;;;18.70;;
10114;SDS011;5097;43.260;27.812;2022-11-15T15:33:41;25.90;;;20.63;;
10114;SDS011;5097;43.260;27.812;2022-11-15T15:36:25;28.33;;;21.80;;
10114;SDS011;5097;43.260;27.812;2022-11-15T15:39:09;34.47;;;23.87;;
10114;SDS011;5097;43.260;27.812;2022-11-15T15:41:53;26.33;;;20.47;;
10114;SDS011;5097;43.260;27.812;2022-11-15T15:44:38;24.53;;;16.27;;
10114;SDS011;5097;43.260;27.812;2022-11-15T15:47:22;20.13;;;16.67;;
10114;SDS011;5097;43.260;27.812;2022-11-15T15:50:14;35.07;;;31.13;;
10114;SDS011;5097;43.260;27.812;2022-11-15T15:53:03;22.67;;;16.30;;
10114;SDS011;5097;43.260;27.812;2022-11-15T15:55:48;19.60;;;15.97;;
10114;SDS011;5097;43.260;27.812;2022-11-15T15:58:31;20.13;;;13.97;;
10114;SDS011;5097;43.260;27.812;2022-11-15T16:01:16;17.23;;;13.87;;
10114;SDS011;5097;43.260;27.812;2022-11-15T16:04:00;22.13;;;14.73;;
10114;SDS011;5097;43.260;27.812;2022-11-15T16:06:46;17.43;;;12.73;;
10114;SDS011;5097;43.260;27.812;2022-11-15T16:09:32;23.40;;;15.60;;
10114;SDS011;5097;43.260;27.812;2022-11-15T16:12:34;27.63;;;21.90;;
10114;SDS011;5097;43.260;27.812;2022-11-15T16:15:18;31.07;;;21.13;;
10114;SDS011;5097;43.260;27.812;2022-11-15T16:18:03;23.43;;;19.60;;
10114;SDS011;5097;43.260;27.812;2022-11-15T16:20:50;20.03;;;17.53;;
10114;SDS011;5097;43.260;27.812;2022-11-15T16:23:39;21.77;;;18.47;;
10114;SDS011;5097;43.260;27.812;2022-11-15T16:26:25;20.63;;;17.57;;
10114;SDS011;5097;43.260;27.812;2022-11-15T16:29:10;18.80;;;16.53;;
10114;SDS011;5097;43.260;27.812;2022-11-15T16:31:54;23.13;;;20.17;;
10114;SDS011;5097;43.260;27.812;2022-11-15T16:34:38;30.07;;;21.70;;
10114;SDS011;5097;43.260;27.812;2022-11-15T16:37:28;24.93;;;18.60;;
10114;SDS011;5097;43.260;27.812;2022-11-15T16:40:20;16.17;;;11.23;;
10114;SDS011;5097;43.260;27.812;2022-11-15T16:43:08;13.23;;;9.30;;
10114;SDS011;5097;43.260;27.812;2022-11-15T16:45:52;12.53;;;9.57;;
10114;SDS011;5097;43.260;27.812;2022-11-15T16:48:37;11.13;;;9.33;;
10114;SDS011;5097;43.260;27.812;2022-11-15T16:51:21;18.97;;;9.00;;
10114;SDS011;5097;43.260;27.812;2022-11-15T16:54:05;12.53;;;9.87;;
10114;SDS011;5097;43.260;27.812;2022-11-15T16:56:51;12.97;;;10.60;;
10114;SDS011;5097;43.260;27.812;2022-11-15T16:59:35;18.33;;;12.83;;
10114;SDS011;5097;43.260;27.812;2022-11-15T17:02:19;25.77;;;16.40;;
10114;SDS011;5097;43.260;27.812;2022-11-15T17:05:03;19.17;;;15.67;;
10114;SDS011;5097;43.260;27.812;2022-11-15T17:07:52;16.63;;;11.83;;
10114;SDS011;5097;43.260;27.812;2022-11-15T17:10:37;17.93;;;11.37;;
10114;SDS011;5097;43.260;27.812;2022-11-15T17:13:24;16.63;;;10.23;;
10114;SDS011;5097;43.260;27.812;2022-11-15T17:16:08;13.63;;;10.43;;
10114;SDS011;5097;43.260;27.812;2022-11-15T17:18:53;13.80;;;10.50;;
10114;SDS011;5097;43.260;27.812;2022-11-15T17:21:37;15.57;;;10.50;;
10114;SDS011;5097;43.260;27.812;2022-11-15T17:24:21;17.40;;;12.30;;
10114;SDS011;5097;43.260;27.812;2022-11-15T17:27:05;12.63;;;10.90;;
10114;SDS011;5097;43.260;27.812;2022-11-15T17:29:50;15.30;;;11.53;;
10114;SDS011;5097;43.260;27.812;2022-11-15T17:32:34;13.27;;;10.80;;
10114;SDS011;5097;43.260;27.812;2022-11-15T17:35:19;18.90;;;11.70;;
10114;SDS011;5097;43.260;27.812;2022-11-15T17:38:03;13.40;;;11.23;;
10114;SDS011;5097;43.260;27.812;2022-11-15T17:40:47;16.73;;;11.13;;
10114;SDS011;5097;43.260;27.812;2022-11-15T17:43:31;13.30;;;11.07;;
10114;SDS011;5097;43.260;27.812;2022-11-15T17:46:18;18.37;;;13.83;;
10114;SDS011;5097;43.260;27.812;2022-11-15T17:49:03;17.17;;;13.77;;
10114;SDS011;5097;43.260;27.812;2022-11-15T17:51:46;22.47;;;17.43;;